createdAt,value
2017-07-20T14:35:09.179Z,24.0
2017-07-20T14:36:10.582Z,23.2
2017-07-20T14:37:11.981Z,22.1
2017-07-20T14:38:13.396Z,22.9
2017-07-20T14:39:14.793Z,22.7
2017-07-20T14:40:16.305Z,22.6
2017-07-20T14:41:17.722Z,22.4
2017-07-20T14:42:19.129Z,23.7
2017-07-20T14:43:20.603Z,22.4
2017-07-20T14:45:01.986Z,21.8
2017-07-20T14:46:03.395Z,21.3
2017-07-20T14:47:26.504Z,21.5
2017-07-20T14:48:27.908Z,23.8
2017-07-20T14:49:29.373Z,23.2
2017-07-20T14:50:30.800Z,23.2
2017-07-20T14:51:32.203Z,23.6
2017-07-20T14:52:33.630Z,25.0
2017-07-20T14:53:35.042Z,25.2
2017-07-20T14:54:36.456Z,27.0
2017-07-20T14:55:37.935Z,26.6
2017-07-20T14:56:39.368Z,28.0
2017-07-20T14:57:40.765Z,28.7
2017-07-20T14:58:42.336Z,28.4
2017-07-20T14:59:43.886Z,29.2
2017-07-20T15:01:26.339Z,28.7
2017-07-20T15:02:27.748Z,29.1
2017-07-20T15:03:29.260Z,29.7
2017-07-20T15:04:30.668Z,28.7
2017-07-20T15:05:32.076Z,30.1
2017-07-20T15:06:33.486Z,30.1
2017-07-20T15:07:34.884Z,30.0
2017-07-20T15:08:36.278Z,31.3
2017-07-20T15:09:37.669Z,30.5
2017-07-20T15:10:39.077Z,31.5
2017-07-20T15:11:40.537Z,30.4
2017-07-20T15:12:43.304Z,31.1
2017-07-20T15:13:45.432Z,30.4
2017-07-20T15:14:46.839Z,29.8
2017-07-20T15:15:48.249Z,28.9
2017-07-20T15:16:49.795Z,29.2
2017-07-20T15:17:51.341Z,29.1
2017-07-20T15:18:52.886Z,27.5
2017-07-20T15:19:54.502Z,27.8
2017-07-20T15:20:55.908Z,27.1
2017-07-20T15:21:57.339Z,27.2
2017-07-20T15:22:58.765Z,28.7
2017-07-20T15:24:00.163Z,27.8
2017-07-20T15:25:01.557Z,27.9
2017-07-20T15:26:43.958Z,28.4
2017-07-20T15:27:45.359Z,28.5
2017-07-20T15:28:46.754Z,28.9
2017-07-20T15:29:48.536Z,28.6
2017-07-20T15:30:49.936Z,29.3
2017-07-20T15:31:51.356Z,29.1
2017-07-20T15:32:52.734Z,30.7
2017-07-20T15:33:54.294Z,29.0
2017-07-20T15:34:55.705Z,30.5
2017-07-20T15:35:57.104Z,30.1
2017-07-20T15:36:58.507Z,30.1
2017-07-20T15:37:59.973Z,28.8
2017-07-20T15:39:01.378Z,30.8
2017-07-20T15:40:02.884Z,31.0
2017-07-20T15:41:04.333Z,30.6
2017-07-20T15:42:05.876Z,31.3
2017-07-20T15:43:07.340Z,31.3
2017-07-20T15:44:08.783Z,31.6
2017-07-20T15:45:10.274Z,32.2
2017-07-20T15:46:11.847Z,31.0
2017-07-20T15:47:13.384Z,30.6
2017-07-20T15:48:14.798Z,29.8
2017-07-20T15:49:57.182Z,31.1
2017-07-20T15:50:58.585Z,32.4
2017-07-20T15:51:59.982Z,33.2
2017-07-20T15:53:01.375Z,32.3
2017-07-20T15:54:02.769Z,33.2
2017-07-20T15:55:04.356Z,33.4
2017-07-20T15:56:05.740Z,35.0
2017-07-20T15:57:07.137Z,35.3
2017-07-20T15:58:08.530Z,34.3
2017-07-20T15:59:09.918Z,34.0
2017-07-20T16:00:11.324Z,34.8
2017-07-20T16:01:12.714Z,34.8
2017-07-20T16:02:14.130Z,35.0
2017-07-20T16:03:15.524Z,34.2
2017-07-20T16:04:17.391Z,34.0
2017-07-20T16:05:19.431Z,32.4
2017-07-20T16:06:20.782Z,34.2
2017-07-20T16:07:22.178Z,33.4
2017-07-20T16:08:23.596Z,33.0
2017-07-20T16:09:25.181Z,32.9
2017-07-20T16:10:26.575Z,33.9
2017-07-20T16:11:27.992Z,33.7
2017-07-20T16:12:29.395Z,32.9
2017-07-20T16:13:30.970Z,33.7
2017-07-20T16:14:32.372Z,32.7
2017-07-20T16:15:33.986Z,34.1
2017-07-20T16:16:35.381Z,32.3
2017-07-20T16:17:36.769Z,33.2
2017-07-20T16:18:39.321Z,33.3
2017-07-20T16:19:40.712Z,33.2
2017-07-20T16:20:42.118Z,33.6
2017-07-20T16:21:43.505Z,34.0
2017-07-20T16:22:44.908Z,35.1
2017-07-20T16:23:46.529Z,34.5
2017-07-20T16:24:47.940Z,34.7
2017-07-20T16:25:49.406Z,34.4
2017-07-20T16:26:50.856Z,35.0
2017-07-20T16:27:52.254Z,34.3
2017-07-20T16:28:53.689Z,34.3
2017-07-20T16:29:55.067Z,34.6
2017-07-20T16:30:56.515Z,35.0
2017-07-20T16:31:58.953Z,35.2
2017-07-20T16:33:00.510Z,34.9
2017-07-20T16:34:02.036Z,34.4
2017-07-20T16:35:03.485Z,35.4
2017-07-20T16:36:04.878Z,35.5
2017-07-20T16:37:06.274Z,34.7
2017-07-20T16:38:08.455Z,34.8
2017-07-20T16:39:09.859Z,35.6
2017-07-20T16:40:11.264Z,35.6
2017-07-20T16:41:12.728Z,35.0
2017-07-20T16:42:14.135Z,35.3
2017-07-20T16:43:15.620Z,35.2
2017-07-20T16:44:57.996Z,34.1
2017-07-20T16:45:59.407Z,35.7
2017-07-20T16:47:00.797Z,36.4
2017-07-20T16:48:02.209Z,35.5
2017-07-20T16:49:03.611Z,35.3
2017-07-20T16:50:05.028Z,34.6
2017-07-20T16:51:06.425Z,35.3
2017-07-20T16:52:07.825Z,35.7
2017-07-20T16:53:09.214Z,35.7
2017-07-20T16:54:10.616Z,35.5
2017-07-20T16:55:11.998Z,35.4
2017-07-20T16:56:13.420Z,36.3
2017-07-20T16:57:14.830Z,37.6
2017-07-20T16:58:16.224Z,37.7
2017-07-20T16:59:17.625Z,38.0
2017-07-20T17:00:19.757Z,37.3
2017-07-20T17:01:21.791Z,37.2
2017-07-20T17:02:23.564Z,37.3
2017-07-20T17:03:24.941Z,37.8
2017-07-20T17:04:26.537Z,38.1
2017-07-20T17:06:09.035Z,37.5
2017-07-20T17:07:10.370Z,37.5
2017-07-20T17:08:11.855Z,36.4
2017-07-20T17:09:13.233Z,37.1
2017-07-20T17:10:14.638Z,37.6
2017-07-20T17:11:16.028Z,36.8
2017-07-20T17:12:17.425Z,37.8
2017-07-20T17:14:00.194Z,38.3
2017-07-20T17:15:02.224Z,38.2
2017-07-20T17:16:03.483Z,38.0
2017-07-20T17:17:04.888Z,37.8
2017-07-20T17:18:06.397Z,38.0
2017-07-20T17:19:07.794Z,38.5
2017-07-20T17:20:09.226Z,37.7
2017-07-20T17:21:10.626Z,37.9
2017-07-20T17:22:12.027Z,37.8
2017-07-20T17:23:13.434Z,37.8
2017-07-20T17:24:14.828Z,37.4
2017-07-20T17:25:16.220Z,37.9
2017-07-20T17:26:17.703Z,38.0
2017-07-20T17:27:19.263Z,38.1
2017-07-20T17:28:20.658Z,38.5
2017-07-20T17:29:22.057Z,38.2
2017-07-20T17:30:23.448Z,38.1
2017-07-20T17:31:24.845Z,38.4
2017-07-20T17:32:26.237Z,38.8
2017-07-20T17:33:27.875Z,38.5
2017-07-20T17:34:29.271Z,38.6
2017-07-20T17:35:30.661Z,39.3
2017-07-20T17:36:32.177Z,38.3
2017-07-20T17:37:33.647Z,38.5
2017-07-20T17:38:35.048Z,38.1
2017-07-20T17:39:36.431Z,38.9
2017-07-20T17:40:37.954Z,38.5
2017-07-20T17:41:39.586Z,38.6
2017-07-20T17:42:41.088Z,38.6
2017-07-20T17:43:43.060Z,39.5
2017-07-20T17:44:44.892Z,38.2
2017-07-20T17:45:46.803Z,38.9
2017-07-20T17:46:48.291Z,39.7
2017-07-20T17:47:49.734Z,39.0
2017-07-20T17:48:51.209Z,39.1
2017-07-20T17:49:52.736Z,38.2
2017-07-20T17:50:54.260Z,38.7
2017-07-20T17:51:55.653Z,38.8
2017-07-20T17:52:57.208Z,38.9
2017-07-20T17:53:58.611Z,39.0
2017-07-20T17:55:00.024Z,39.8
2017-07-20T17:56:01.414Z,39.8
2017-07-20T17:57:03.598Z,39.4
2017-07-20T17:58:05.886Z,39.9
2017-07-20T17:59:08.166Z,40.1
2017-07-20T18:00:09.632Z,39.1
2017-07-20T18:01:11.029Z,39.4
2017-07-20T18:02:12.649Z,39.0
2017-07-20T18:03:14.121Z,39.4
2017-07-20T18:04:15.701Z,39.6
2017-07-20T18:05:17.101Z,40.3
2017-07-20T18:06:18.499Z,40.1
2017-07-20T18:07:19.952Z,39.8
2017-07-20T18:08:21.392Z,39.9
2017-07-20T18:09:22.902Z,40.7
2017-07-20T18:10:25.335Z,40.4
2017-07-20T18:11:27.343Z,40.4
2017-07-20T18:12:28.868Z,40.3
2017-07-20T18:13:30.233Z,40.5
2017-07-20T18:14:31.651Z,40.8
2017-07-20T18:15:33.042Z,41.3
2017-07-20T18:16:34.520Z,41.1
2017-07-20T18:17:35.978Z,41.0
2017-07-20T18:18:37.360Z,42.2
2017-07-20T18:19:38.775Z,41.0
2017-07-20T18:20:40.184Z,41.1
2017-07-20T18:21:41.579Z,41.0
2017-07-20T18:22:43.018Z,41.3
2017-07-20T18:23:44.455Z,41.1
2017-07-20T18:24:45.853Z,41.8
2017-07-20T18:25:47.354Z,41.6
2017-07-20T18:26:48.820Z,41.8
2017-07-20T18:27:50.214Z,41.7
2017-07-20T18:28:51.856Z,42.1
2017-07-20T18:29:53.420Z,41.5
2017-07-20T18:30:54.832Z,42.3
2017-07-20T18:32:37.221Z,42.7
2017-07-20T18:33:38.603Z,42.7
2017-07-20T18:34:39.992Z,42.8
2017-07-20T18:35:41.385Z,42.9
2017-07-20T18:36:42.774Z,42.7
2017-07-20T18:37:44.159Z,42.8
2017-07-20T18:38:45.559Z,43.3
2017-07-20T18:39:46.949Z,44.3
2017-07-20T18:40:48.345Z,43.1
2017-07-20T18:41:49.785Z,42.8
2017-07-20T18:42:51.167Z,43.1
2017-07-20T18:43:52.553Z,43.9
2017-07-20T18:44:53.944Z,44.4
2017-07-20T18:45:55.340Z,43.4
2017-07-20T18:46:56.757Z,43.7
2017-07-20T18:47:58.160Z,44.3
2017-07-20T18:48:59.822Z,44.1
2017-07-20T18:50:01.229Z,44.1
2017-07-20T18:51:02.669Z,44.2
2017-07-20T18:52:04.087Z,44.5
2017-07-20T18:53:05.575Z,44.7
2017-07-20T18:54:06.970Z,44.5
2017-07-20T18:55:08.728Z,44.9
2017-07-20T18:56:10.585Z,45.0
2017-07-20T18:57:11.980Z,45.3
2017-07-20T18:58:13.498Z,44.7
2017-07-20T18:59:14.920Z,45.3
2017-07-20T19:00:16.311Z,45.8
2017-07-20T19:01:17.701Z,46.0
2017-07-20T19:02:19.128Z,46.0
2017-07-20T19:03:20.713Z,46.0
2017-07-20T19:04:22.122Z,45.6
2017-07-20T19:05:23.556Z,45.7
2017-07-20T19:06:25.005Z,46.0
2017-07-20T19:07:26.691Z,46.4
2017-07-20T19:08:28.307Z,46.0
2017-07-20T19:09:29.765Z,45.3
2017-07-20T19:10:31.237Z,46.1
2017-07-20T19:11:32.705Z,44.9
2017-07-20T19:12:34.116Z,45.9
2017-07-20T19:13:35.704Z,46.0
2017-07-20T19:14:37.262Z,45.6
2017-07-20T19:15:38.694Z,46.0
2017-07-20T19:16:40.229Z,46.3
2017-07-20T19:17:41.673Z,46.9
2017-07-20T19:18:43.065Z,48.1
2017-07-20T19:19:44.505Z,49.3
2017-07-20T19:20:45.922Z,50.1
2017-07-20T19:21:47.362Z,51.3
2017-07-20T19:22:48.787Z,52.6
2017-07-20T19:23:50.380Z,54.3
2017-07-20T19:24:51.811Z,56.6
2017-07-20T19:25:53.280Z,57.2
2017-07-20T19:26:54.863Z,57.5
2017-07-20T19:27:56.337Z,58.4
2017-07-20T19:28:58.120Z,58.8
2017-07-20T19:29:59.758Z,59.6
2017-07-20T19:31:01.179Z,59.3
2017-07-20T19:32:02.700Z,59.8
2017-07-20T19:33:04.097Z,60.6
2017-07-20T19:34:05.594Z,60.7
2017-07-20T19:35:07.030Z,60.7
2017-07-20T19:36:48.417Z,61.1
2017-07-20T19:37:49.797Z,61.2
2017-07-20T19:39:12.815Z,62.2
2017-07-20T19:40:14.196Z,61.7
2017-07-20T19:41:15.590Z,62.6
2017-07-20T19:42:16.964Z,61.6
2017-07-20T19:43:18.403Z,61.9
2017-07-20T19:44:19.792Z,62.5
2017-07-20T19:45:21.181Z,62.2
2017-07-20T19:46:22.564Z,61.6
2017-07-20T19:47:23.989Z,62.4
2017-07-20T19:48:25.444Z,62.2
2017-07-20T19:49:26.831Z,61.9
2017-07-20T19:50:28.214Z,61.8
2017-07-20T19:51:29.607Z,61.3
2017-07-20T19:52:31.010Z,61.3
2017-07-20T19:53:32.421Z,61.0
2017-07-20T19:54:34.049Z,61.4
2017-07-20T19:55:35.599Z,61.2
2017-07-20T19:56:37.017Z,61.4
2017-07-20T19:57:38.474Z,61.1
2017-07-20T19:58:39.943Z,62.0
2017-07-20T19:59:41.329Z,61.2
2017-07-20T20:00:42.861Z,62.1
2017-07-20T20:01:44.409Z,61.7
2017-07-20T20:02:45.776Z,61.8
2017-07-20T20:03:47.180Z,61.8
2017-07-20T20:04:48.915Z,61.8
2017-07-20T20:05:50.443Z,62.3
2017-07-20T20:06:51.872Z,61.2
2017-07-20T20:07:53.272Z,62.0
2017-07-20T20:08:54.688Z,62.4
2017-07-20T20:09:56.093Z,62.7
2017-07-20T20:10:57.484Z,61.6
2017-07-20T20:11:58.934Z,61.9
2017-07-20T20:13:00.486Z,60.6
2017-07-20T20:14:02.058Z,60.9
2017-07-20T20:15:03.456Z,60.4
2017-07-20T20:16:05.469Z,59.6
2017-07-20T20:17:07.230Z,59.4
2017-07-20T20:18:09.116Z,59.5
2017-07-20T20:19:10.727Z,59.3
2017-07-20T20:20:12.457Z,59.3
2017-07-20T20:21:14.249Z,59.1
2017-07-20T20:22:16.429Z,59.0
2017-07-20T20:23:18.014Z,58.9
2017-07-20T20:24:59.423Z,59.7
2017-07-20T20:26:00.812Z,60.0
2017-07-20T20:27:24.242Z,59.7
2017-07-20T20:28:25.563Z,60.0
2017-07-20T20:29:26.940Z,59.4
2017-07-20T20:30:28.346Z,60.4
2017-07-20T20:31:29.736Z,60.4
2017-07-20T20:32:31.236Z,60.4
2017-07-20T20:33:32.670Z,60.6
2017-07-20T20:34:34.055Z,60.9
2017-07-20T20:35:35.459Z,60.8
2017-07-20T20:36:37.005Z,60.8
2017-07-20T20:37:38.712Z,61.1
2017-07-20T20:38:40.306Z,61.3
2017-07-20T20:39:41.742Z,61.0
2017-07-20T20:40:43.334Z,61.8
2017-07-20T20:41:45.008Z,61.8
2017-07-20T20:42:46.450Z,62.4
2017-07-20T20:43:48.421Z,62.4
2017-07-20T20:44:50.132Z,62.3
2017-07-20T20:45:51.518Z,62.0
2017-07-20T20:46:52.934Z,62.1
2017-07-20T20:47:54.345Z,63.0
2017-07-20T20:48:55.771Z,63.3
2017-07-20T20:49:57.680Z,63.8
2017-07-20T20:50:59.116Z,63.1
2017-07-20T20:52:00.537Z,63.1
2017-07-20T20:53:02.170Z,63.4
2017-07-20T20:54:04.364Z,63.2
2017-07-20T20:55:06.487Z,63.3
2017-07-20T20:56:08.225Z,63.2
2017-07-20T20:57:09.755Z,64.1
2017-07-20T20:58:11.393Z,63.9
2017-07-20T20:59:13.018Z,63.9
2017-07-20T21:00:14.507Z,63.6
2017-07-20T21:01:15.906Z,64.1
2017-07-20T21:02:17.307Z,63.9
2017-07-20T21:03:19.584Z,63.9
2017-07-20T21:04:21.058Z,63.8
2017-07-20T21:05:22.451Z,63.5
2017-07-20T21:06:23.928Z,63.8
2017-07-20T21:07:25.566Z,63.7
2017-07-20T21:08:27.567Z,63.8
2017-07-20T21:09:29.284Z,63.2
2017-07-20T21:10:30.692Z,63.9
2017-07-20T21:11:32.084Z,63.6
2017-07-20T21:12:33.473Z,63.2
2017-07-20T21:13:35.093Z,63.1
2017-07-20T21:14:36.746Z,62.7
2017-07-20T21:15:38.118Z,63.1
2017-07-20T21:16:39.769Z,64.3
2017-07-20T21:17:41.350Z,62.6
2017-07-20T21:18:42.986Z,63.0
2017-07-20T21:19:44.393Z,62.2
2017-07-20T21:20:46.004Z,62.4
2017-07-20T21:21:47.394Z,63.2
2017-07-20T21:22:49.044Z,62.4
2017-07-20T21:23:50.442Z,63.0
2017-07-20T21:24:51.827Z,62.6
2017-07-20T21:25:53.278Z,62.6
2017-07-20T21:26:55.028Z,62.3
2017-07-20T21:27:56.603Z,62.5
2017-07-20T21:28:58.007Z,62.7
2017-07-20T21:29:59.413Z,63.0
2017-07-20T21:31:00.794Z,62.8
2017-07-20T21:32:02.235Z,62.8
2017-07-20T21:33:03.644Z,61.4
2017-07-20T21:34:05.702Z,62.1
2017-07-20T21:35:07.891Z,62.6
2017-07-20T21:36:09.622Z,61.7
2017-07-20T21:37:51.997Z,62.3
2017-07-20T21:38:53.377Z,62.2
2017-07-20T21:39:54.771Z,61.7
2017-07-20T21:40:56.151Z,62.2
2017-07-20T21:41:57.562Z,61.8
2017-07-20T21:42:58.950Z,62.5
2017-07-20T21:44:00.612Z,62.2
2017-07-20T21:45:02.450Z,62.3
2017-07-20T21:46:04.185Z,62.9
2017-07-20T21:47:05.622Z,62.3
2017-07-20T21:48:07.088Z,63.3
2017-07-20T21:49:09.485Z,62.6
2017-07-20T21:50:50.827Z,63.1
2017-07-20T21:51:52.217Z,62.8
2017-07-20T21:53:14.249Z,62.6
2017-07-20T21:54:16.138Z,62.4
2017-07-20T21:55:38.200Z,62.6
2017-07-20T21:56:39.592Z,62.5
2017-07-20T21:58:02.597Z,62.4
2017-07-20T21:59:03.993Z,63.2
2017-07-20T22:00:06.174Z,63.8
2017-07-20T22:01:08.097Z,64.0
2017-07-20T22:02:09.495Z,63.9
2017-07-20T22:03:10.874Z,63.4
2017-07-20T22:04:12.339Z,63.9
2017-07-20T22:05:13.800Z,63.8
2017-07-20T22:06:15.453Z,64.1
2017-07-20T22:07:16.823Z,63.6
2017-07-20T22:08:18.801Z,63.8
2017-07-20T22:09:21.030Z,63.6
2017-07-20T22:10:22.544Z,64.0
2017-07-20T22:11:23.946Z,64.1
2017-07-20T22:12:25.361Z,64.1
2017-07-20T22:13:26.755Z,64.1
2017-07-20T22:14:28.129Z,64.0
2017-07-20T22:15:29.519Z,64.8
2017-07-20T22:16:30.896Z,64.6
2017-07-20T22:17:32.281Z,64.9
2017-07-20T22:18:33.687Z,64.8
2017-07-20T22:19:35.394Z,64.7
2017-07-20T22:20:36.943Z,64.5
2017-07-20T22:21:38.385Z,64.4
2017-07-20T22:22:40.049Z,64.6
2017-07-20T22:23:41.608Z,65.3
2017-07-20T22:24:43.218Z,65.4
2017-07-20T22:25:44.810Z,65.2
2017-07-20T22:26:46.418Z,65.4
2017-07-20T22:27:47.805Z,65.7
2017-07-20T22:28:49.326Z,65.6
2017-07-20T22:29:51.027Z,65.8
2017-07-20T22:30:52.641Z,65.8
2017-07-20T22:31:54.033Z,65.1
2017-07-20T22:32:55.435Z,65.8
2017-07-20T22:33:56.840Z,65.5
2017-07-20T22:34:58.444Z,65.7
2017-07-20T22:35:59.856Z,65.8
2017-07-20T22:37:01.263Z,65.7
2017-07-20T22:38:43.706Z,66.2
2017-07-20T22:39:45.085Z,65.9
2017-07-20T22:40:46.470Z,66.4
2017-07-20T22:41:47.854Z,66.5
2017-07-20T22:42:49.228Z,66.9
2017-07-20T22:43:50.639Z,67.3
2017-07-20T22:44:52.026Z,67.4
2017-07-20T22:45:53.536Z,67.4
2017-07-20T22:46:55.211Z,67.6
2017-07-20T22:47:56.793Z,67.7
2017-07-20T22:49:39.216Z,69.1
2017-07-20T22:50:40.588Z,69.1
2017-07-20T22:51:41.974Z,69.0
2017-07-20T22:52:43.615Z,68.7
2017-07-20T22:53:45.826Z,69.3
2017-07-20T22:54:47.373Z,69.1
2017-07-20T22:55:49.105Z,69.2
2017-07-20T22:56:50.965Z,69.0
2017-07-20T22:57:52.505Z,69.1
2017-07-20T22:58:53.890Z,69.9
2017-07-20T22:59:55.349Z,70.1
2017-07-20T23:00:56.918Z,70.0
2017-07-20T23:01:58.513Z,70.2
2017-07-20T23:02:59.939Z,70.7
2017-07-20T23:04:01.649Z,70.3
2017-07-20T23:05:03.240Z,70.7
2017-07-20T23:06:04.620Z,70.9
2017-07-20T23:07:06.503Z,70.9
2017-07-20T23:08:08.175Z,71.3
2017-07-20T23:09:09.756Z,71.7
2017-07-20T23:10:11.177Z,71.4
2017-07-20T23:11:13.021Z,71.7
2017-07-20T23:12:15.091Z,71.6
2017-07-20T23:13:16.510Z,71.3
2017-07-20T23:14:18.123Z,71.4
2017-07-20T23:15:19.661Z,71.3
2017-07-20T23:16:21.075Z,71.6
2017-07-20T23:17:22.558Z,71.8
2017-07-20T23:18:24.259Z,72.3
2017-07-20T23:19:25.876Z,71.7
2017-07-20T23:20:27.365Z,71.8
2017-07-20T23:21:28.760Z,71.5
2017-07-20T23:22:30.186Z,72.2
2017-07-20T23:23:31.610Z,71.6
2017-07-20T23:24:33.008Z,71.5
2017-07-20T23:25:34.407Z,71.9
2017-07-20T23:26:35.803Z,72.3
2017-07-20T23:27:37.266Z,72.6
2017-07-20T23:28:38.966Z,72.5
2017-07-20T23:29:40.896Z,72.7
2017-07-20T23:30:42.650Z,72.7
2017-07-20T23:31:44.045Z,73.0
2017-07-20T23:33:25.453Z,73.0
2017-07-20T23:34:26.829Z,72.9
2017-07-20T23:35:28.207Z,72.8
2017-07-20T23:36:29.588Z,72.9
2017-07-20T23:37:31.190Z,73.1
2017-07-20T23:38:32.570Z,73.3
2017-07-20T23:40:15.484Z,73.2
2017-07-20T23:41:16.825Z,73.0
2017-07-20T23:42:18.214Z,74.3
2017-07-20T23:43:19.675Z,73.8
2017-07-20T23:44:21.060Z,74.1
2017-07-20T23:45:22.457Z,73.0
2017-07-20T23:46:24.752Z,73.2
2017-07-20T23:47:26.416Z,73.4
2017-07-20T23:48:28.028Z,73.7
2017-07-20T23:49:29.591Z,72.9
2017-07-20T23:50:31.006Z,74.1
2017-07-20T23:51:32.625Z,73.4
2017-07-20T23:52:34.195Z,73.2
2017-07-20T23:53:35.592Z,73.2
2017-07-20T23:54:37.143Z,73.7
2017-07-20T23:55:38.712Z,73.2
2017-07-20T23:56:40.221Z,73.2
2017-07-20T23:57:41.735Z,73.2
2017-07-20T23:58:43.733Z,72.9
